createdAt,value
2019-01-22T00:01:04.413Z,100827.00
2019-01-22T00:03:33.868Z,100837.00
2019-01-22T00:06:03.324Z,100836.00
2019-01-22T00:08:33.100Z,100837.00
2019-01-22T00:11:02.552Z,100823.00
2019-01-22T00:13:32.003Z,100817.00
2019-01-22T00:16:01.500Z,100830.00
2019-01-22T00:18:30.974Z,100808.00
2019-01-22T00:21:00.434Z,100814.00
2019-01-22T00:23:29.925Z,100823.00
2019-01-22T00:25:59.466Z,100825.00
2019-01-22T00:28:28.936Z,100816.00
2019-01-22T00:30:58.462Z,100804.00
2019-01-22T00:33:27.916Z,100797.00
2019-01-22T00:35:57.540Z,100802.00
2019-01-22T00:38:27.037Z,100790.00
2019-01-22T00:40:56.558Z,100790.00
2019-01-22T00:43:26.022Z,100800.00
2019-01-22T00:45:55.532Z,100793.00
2019-01-22T00:48:25.458Z,100800.00
2019-01-22T00:50:54.916Z,100795.00
2019-01-22T00:53:24.412Z,100789.00
2019-01-22T00:55:53.873Z,100773.00
2019-01-22T00:58:23.330Z,100779.00
2019-01-22T01:00:52.829Z,100781.00
2019-01-22T01:03:22.290Z,100775.00
2019-01-22T01:05:51.748Z,100775.00
2019-01-22T01:08:21.246Z,100775.00
2019-01-22T01:10:50.874Z,100760.00
2019-01-22T01:13:20.329Z,100758.00
2019-01-22T01:15:49.828Z,100764.00
2019-01-22T01:18:19.284Z,100767.00
2019-01-22T01:20:48.908Z,100755.00
2019-01-22T01:23:18.400Z,100749.00
2019-01-22T01:25:47.858Z,100752.00
2019-01-22T01:28:17.584Z,100753.00
2019-01-22T01:30:47.069Z,100755.00
2019-01-22T01:33:16.522Z,100743.00
2019-01-22T01:35:45.974Z,100739.00
2019-01-22T01:38:15.463Z,100737.00
2019-01-22T01:40:45.036Z,100736.00
2019-01-22T01:43:14.488Z,100725.00
2019-01-22T01:45:43.981Z,100734.00
2019-01-22T01:48:13.450Z,100728.00
2019-01-22T01:50:42.959Z,100723.00
2019-01-22T01:53:12.457Z,100715.00
2019-01-22T01:55:42.386Z,100715.00
2019-01-22T01:58:12.007Z,100719.00
2019-01-22T02:00:41.505Z,100714.00
2019-01-22T02:03:11.042Z,100716.00
2019-01-22T02:05:40.498Z,100718.00
2019-01-22T02:08:09.993Z,100701.00
2019-01-22T02:10:39.686Z,100700.00
2019-01-22T02:13:10.755Z,100696.00
2019-01-22T02:15:56.700Z,100708.00
2019-01-22T02:18:39.804Z,100708.00
2019-01-22T02:21:34.635Z,100704.00
2019-01-22T02:24:32.704Z,100696.00
2019-01-22T02:27:39.956Z,100694.00
2019-01-22T02:30:48.695Z,100689.00
2019-01-22T02:33:44.289Z,100689.00
2019-01-22T02:36:36.181Z,100683.00
2019-01-22T02:39:31.279Z,100681.00
2019-01-22T02:42:08.514Z,100679.00
2019-01-22T02:45:27.454Z,100690.00
2019-01-22T02:48:16.381Z,100688.00
2019-01-22T02:51:16.446Z,100690.00
2019-01-22T02:53:53.468Z,100682.00
2019-01-22T02:56:42.529Z,100679.00
2019-01-22T02:59:56.001Z,100669.00
2019-01-22T03:02:48.244Z,100669.00
2019-01-22T03:05:40.461Z,100666.00
2019-01-22T03:08:44.563Z,100652.00
2019-01-22T03:11:24.394Z,100653.00
2019-01-22T03:14:22.635Z,100649.00
2019-01-22T03:17:23.335Z,100645.00
2019-01-22T03:20:20.092Z,100654.00
2019-01-22T03:23:33.118Z,100646.00
2019-01-22T03:26:13.389Z,100639.00
2019-01-22T03:31:58.203Z,100640.00
2019-01-22T03:35:11.249Z,100649.00
2019-01-22T03:38:04.545Z,100644.00
2019-01-22T03:40:42.369Z,100652.00
2019-01-22T03:43:37.524Z,100642.00
2019-01-22T03:46:29.720Z,100647.00
2019-01-22T03:49:06.730Z,100645.00
2019-01-22T03:51:49.803Z,100635.00
2019-01-22T03:54:41.893Z,100623.00
2019-01-22T03:57:30.933Z,100622.00
2019-01-22T04:00:00.440Z,100614.00
2019-01-22T04:02:30.994Z,100618.00
2019-01-22T04:05:00.453Z,100618.00
2019-01-22T04:07:30.307Z,100612.00
2019-01-22T04:10:00.977Z,100613.00
2019-01-22T04:12:30.428Z,100616.00
2019-01-22T04:14:59.913Z,100624.00
2019-01-22T04:17:29.417Z,100619.00
2019-01-22T04:19:59.143Z,100611.00
2019-01-22T04:22:32.217Z,100605.00
2019-01-22T04:25:29.794Z,100595.00
2019-01-22T04:28:12.919Z,100604.00
2019-01-22T04:31:17.400Z,100607.00
2019-01-22T04:33:54.146Z,100606.00
2019-01-22T04:36:58.665Z,100605.00
2019-01-22T04:40:12.209Z,100603.00
2019-01-22T04:42:58.065Z,100597.00
2019-01-22T04:45:50.142Z,100601.00
2019-01-22T04:48:53.164Z,100605.00
2019-01-22T04:51:51.118Z,100598.00
2019-01-22T04:54:58.349Z,100603.00
2019-01-22T04:57:47.345Z,100593.00
2019-01-22T05:00:46.827Z,100590.00
2019-01-22T05:03:40.560Z,100617.00
2019-01-22T05:06:29.632Z,100613.00
2019-01-22T05:09:27.229Z,100593.00
2019-01-22T05:12:13.016Z,100578.00
2019-01-22T05:14:58.277Z,100592.00
2019-01-22T05:17:44.222Z,100588.00
2019-01-22T05:20:30.173Z,100574.00
2019-01-22T05:23:10.054Z,100563.00
2019-01-22T05:26:07.150Z,100565.00
2019-01-22T05:29:01.845Z,100563.00
2019-01-22T05:31:35.921Z,100558.00
2019-01-22T05:34:28.222Z,100565.00
2019-01-22T05:37:26.493Z,100567.00
2019-01-22T05:40:27.690Z,100564.00
2019-01-22T05:43:07.613Z,100560.00
2019-01-22T05:45:47.093Z,100573.00
2019-01-22T05:48:33.093Z,100561.00
2019-01-22T05:51:19.243Z,100567.00
2019-01-22T05:53:58.966Z,100568.00
2019-01-22T06:00:07.012Z,100559.00
2019-01-22T06:02:41.096Z,100569.00
2019-01-22T06:05:39.020Z,100565.00
2019-01-22T06:08:13.101Z,100560.00
2019-01-22T06:11:10.764Z,100558.00
2019-01-22T06:13:59.701Z,100563.00
2019-01-22T06:16:54.779Z,100551.00
2019-01-22T06:19:34.172Z,100549.00
2019-01-22T06:22:27.817Z,100535.00
2019-01-22T06:25:10.579Z,100539.00
2019-01-22T06:27:40.047Z,100547.00
2019-01-22T06:30:28.952Z,100536.00
2019-01-22T06:33:18.574Z,100539.00
2019-01-22T06:36:01.650Z,100538.00
2019-01-22T06:39:05.537Z,100539.00
2019-01-22T06:42:14.559Z,100530.00
2019-01-22T06:45:26.841Z,100546.00
2019-01-22T06:48:28.890Z,100552.00
2019-01-22T06:51:34.068Z,100545.00
2019-01-22T06:54:25.770Z,100542.00
2019-01-22T06:57:35.053Z,100535.00
2019-01-22T07:00:36.377Z,100541.00
2019-01-22T07:03:16.135Z,100541.00
2019-01-22T07:06:26.652Z,100541.00
2019-01-22T07:09:17.113Z,100543.00
2019-01-22T07:11:53.993Z,100543.00
2019-01-22T07:14:46.367Z,100551.00
2019-01-22T07:17:29.428Z,100535.00
2019-01-22T07:20:34.806Z,100547.00
2019-01-22T07:23:20.898Z,100546.00
2019-01-22T07:26:06.579Z,100550.00
2019-01-22T07:29:10.522Z,100564.00
2019-01-22T07:31:50.299Z,100561.00
2019-01-22T07:34:30.159Z,100563.00
2019-01-22T07:37:32.239Z,100553.00
2019-01-22T07:40:39.469Z,100556.00
2019-01-22T07:43:22.425Z,100550.00
2019-01-22T07:46:18.602Z,100546.00
2019-01-22T07:49:04.141Z,100547.00
2019-01-22T07:52:10.128Z,100541.00
2019-01-22T07:55:19.206Z,100551.00
2019-01-22T07:58:24.483Z,100551.00
2019-01-22T08:01:39.778Z,100541.00
2019-01-22T08:04:34.670Z,100538.00
2019-01-22T08:07:13.081Z,100544.00
2019-01-22T08:10:37.320Z,100536.00
2019-01-22T08:13:47.716Z,100530.00
2019-01-22T08:16:44.752Z,100531.00
2019-01-22T08:19:42.276Z,100546.00
2019-01-22T08:22:19.202Z,100532.00
2019-01-22T08:25:43.200Z,100529.00
2019-01-22T08:28:50.846Z,100533.00
2019-01-22T08:31:50.876Z,100530.00
2019-01-22T08:34:47.361Z,100532.00
2019-01-22T08:37:21.478Z,100530.00
2019-01-22T08:40:07.285Z,100524.00
2019-01-22T08:43:02.425Z,100530.00
2019-01-22T08:45:42.157Z,100520.00
2019-01-22T08:48:32.616Z,100517.00
2019-01-22T08:51:27.846Z,100532.00
2019-01-22T08:54:07.619Z,100516.00
2019-01-22T08:56:44.648Z,100518.00
2019-01-22T08:59:40.755Z,100509.00
2019-01-22T09:02:32.841Z,100526.00
2019-01-22T09:05:32.844Z,100522.00
2019-01-22T09:08:10.037Z,100529.00
2019-01-22T09:11:06.464Z,100516.00
2019-01-22T09:13:58.042Z,100520.00
2019-01-22T09:17:02.320Z,100521.00
2019-01-22T09:19:57.000Z,100512.00
2019-01-22T09:22:49.330Z,100517.00
2019-01-22T09:25:37.772Z,100513.00
2019-01-22T09:28:17.851Z,100510.00
2019-01-22T09:31:11.441Z,100506.00
2019-01-22T09:33:56.923Z,100512.00
2019-01-22T09:36:42.626Z,100515.00
2019-01-22T09:39:12.631Z,100510.00
2019-01-22T09:41:42.088Z,100503.00
2019-01-22T09:44:11.592Z,100504.00
2019-01-22T09:46:41.055Z,100498.00
2019-01-22T09:49:10.546Z,100493.00
2019-01-22T09:51:40.003Z,100491.00
2019-01-22T09:54:09.562Z,100494.00
2019-01-22T09:56:38.987Z,100487.00
2019-01-22T09:59:08.483Z,100482.00
2019-01-22T10:01:37.934Z,100492.00
2019-01-22T10:04:07.392Z,100489.00
2019-01-22T10:06:36.890Z,100476.00
2019-01-22T10:09:09.626Z,100482.00
2019-01-22T10:11:39.522Z,100485.00
2019-01-22T10:14:09.259Z,100478.00
2019-01-22T10:19:34.741Z,100475.00
2019-01-22T10:22:04.649Z,100463.00
2019-01-22T10:24:34.111Z,100470.00
2019-01-22T10:27:03.673Z,100469.00
2019-01-22T10:29:33.124Z,100458.00
2019-01-22T10:32:02.763Z,100444.00
2019-01-22T10:34:32.237Z,100442.00
2019-01-22T10:37:01.689Z,100450.00
2019-01-22T10:39:31.149Z,100441.00
2019-01-22T10:42:00.635Z,100444.00
2019-01-22T10:44:30.090Z,100442.00
2019-01-22T10:46:59.547Z,100437.00
2019-01-22T10:49:29.036Z,100431.00
2019-01-22T10:51:58.496Z,100428.00
2019-01-22T10:54:27.953Z,100428.00
2019-01-22T10:56:57.445Z,100423.00
2019-01-22T10:59:26.895Z,100424.00
2019-01-22T11:01:56.353Z,100428.00
2019-01-22T11:04:25.846Z,100428.00
2019-01-22T11:06:55.323Z,100417.00
2019-01-22T11:09:24.779Z,100416.00
2019-01-22T11:11:54.253Z,100416.00
2019-01-22T11:14:23.705Z,100409.00
2019-01-22T11:16:53.341Z,100407.00
2019-01-22T11:19:22.783Z,100404.00
2019-01-22T11:21:52.233Z,100410.00
2019-01-22T11:24:21.706Z,100395.00
2019-01-22T11:26:51.154Z,100392.00
2019-01-22T11:29:20.627Z,100393.00
2019-01-22T11:31:50.081Z,100389.00
2019-01-22T11:34:19.696Z,100396.00
2019-01-22T11:36:49.220Z,100383.00
2019-01-22T11:39:18.733Z,100388.00
2019-01-22T11:41:48.182Z,100380.00
2019-01-22T11:44:17.633Z,100376.00
2019-01-22T11:46:47.600Z,100370.00
2019-01-22T11:49:23.226Z,100373.00
2019-01-22T11:51:48.394Z,100376.00
2019-01-22T11:54:17.909Z,100372.00
2019-01-22T11:56:47.392Z,100370.00
2019-01-22T11:59:16.838Z,100367.00
2019-01-22T12:01:46.329Z,100353.00
2019-01-22T12:04:15.869Z,100348.00
2019-01-22T12:06:45.317Z,100337.00
2019-01-22T12:09:14.770Z,100343.00
2019-01-22T12:11:44.267Z,100344.00
2019-01-22T12:14:13.754Z,100335.00
2019-01-22T12:16:43.232Z,100333.00
2019-01-22T12:19:12.701Z,100322.00
2019-01-22T12:21:42.193Z,100324.00
2019-01-22T12:24:11.964Z,100323.00
2019-01-22T12:26:41.459Z,100309.00
2019-01-22T12:29:10.906Z,100300.00
2019-01-22T12:31:40.370Z,100307.00
2019-01-22T12:34:09.906Z,100307.00
2019-01-22T12:36:39.360Z,100314.00
2019-01-22T12:39:09.105Z,100300.00
2019-01-22T12:41:38.551Z,100300.00
2019-01-22T12:44:08.376Z,100298.00
2019-01-22T12:46:37.826Z,100296.00
2019-01-22T12:49:07.317Z,100302.00
2019-01-22T12:51:36.798Z,100292.00
2019-01-22T12:54:06.255Z,100285.00
2019-01-22T12:56:35.845Z,100284.00
2019-01-22T12:59:05.297Z,100289.00
2019-01-22T13:01:34.852Z,100283.00
2019-01-22T13:04:04.860Z,100276.00
2019-01-22T13:06:34.343Z,100259.00
2019-01-22T13:09:05.363Z,100267.00
2019-01-22T13:11:34.841Z,100272.00
2019-01-22T13:14:04.648Z,100259.00
2019-01-22T13:16:34.178Z,100254.00
2019-01-22T13:19:03.740Z,100251.00
2019-01-22T13:21:33.197Z,100259.00
2019-01-22T13:24:02.728Z,100257.00
2019-01-22T13:26:32.198Z,100260.00
2019-01-22T13:29:01.673Z,100256.00
2019-01-22T13:31:31.133Z,100251.00
2019-01-22T13:34:00.625Z,100257.00
2019-01-22T13:36:30.077Z,100246.00
2019-01-22T13:38:59.605Z,100245.00
2019-01-22T13:41:29.178Z,100246.00
2019-01-22T13:43:58.678Z,100230.00
2019-01-22T13:46:28.173Z,100229.00
2019-01-22T13:48:57.629Z,100228.00
2019-01-22T13:51:27.099Z,100242.00
2019-01-22T13:53:56.553Z,100232.00
2019-01-22T13:56:26.048Z,100233.00
2019-01-22T13:58:55.500Z,100230.00
2019-01-22T14:01:25.023Z,100225.00
2019-01-22T14:03:54.651Z,100222.00
2019-01-22T14:06:24.096Z,100230.00
2019-01-22T14:08:53.619Z,100219.00
2019-01-22T14:11:23.077Z,100215.00
2019-01-22T14:13:52.539Z,100219.00
2019-01-22T14:16:22.067Z,100213.00
2019-01-22T14:18:51.541Z,100218.00
2019-01-22T14:21:21.015Z,100209.00
2019-01-22T14:23:50.533Z,100208.00
2019-01-22T14:26:25.566Z,100196.00
2019-01-22T14:28:51.217Z,100195.00
2019-01-22T14:31:20.773Z,100192.00
2019-01-22T14:33:51.292Z,100190.00
2019-01-22T14:36:20.787Z,100190.00
2019-01-22T14:38:50.240Z,100184.00
2019-01-22T14:41:19.692Z,100176.00
2019-01-22T14:43:49.179Z,100183.00
2019-01-22T14:46:18.671Z,100181.00
2019-01-22T14:48:48.192Z,100166.00
2019-01-22T14:51:17.681Z,100173.00
2019-01-22T14:53:47.220Z,100174.00
2019-01-22T14:56:16.675Z,100178.00
2019-01-22T14:58:46.170Z,100178.00
2019-01-22T15:01:15.653Z,100166.00
2019-01-22T15:03:45.123Z,100168.00
2019-01-22T15:06:14.605Z,100156.00
2019-01-22T15:08:44.055Z,100153.00
2019-01-22T15:11:13.585Z,100151.00
2019-01-22T15:13:43.104Z,100152.00
2019-01-22T15:16:12.594Z,100150.00
2019-01-22T15:18:42.050Z,100150.00
2019-01-22T15:21:11.582Z,100148.00
2019-01-22T15:23:41.066Z,100145.00
2019-01-22T15:26:10.575Z,100144.00
2019-01-22T15:28:40.104Z,100133.00
2019-01-22T15:31:09.583Z,100132.00
2019-01-22T15:33:39.055Z,100134.00
2019-01-22T15:36:08.557Z,100138.00
2019-01-22T15:38:38.038Z,100131.00
2019-01-22T15:41:07.790Z,100124.00
2019-01-22T15:43:37.345Z,100132.00
2019-01-22T15:46:06.811Z,100124.00
2019-01-22T15:51:38.611Z,100120.00
2019-01-22T15:54:08.337Z,100128.00
2019-01-22T15:56:37.787Z,100115.00
2019-01-22T15:59:07.260Z,100108.00
2019-01-22T16:01:36.818Z,100118.00
2019-01-22T16:04:06.281Z,100106.00
2019-01-22T16:06:35.779Z,100115.00
2019-01-22T16:09:07.906Z,100123.00
2019-01-22T16:11:37.360Z,100115.00
2019-01-22T16:14:06.842Z,100122.00
2019-01-22T16:16:36.313Z,100110.00
2019-01-22T16:19:05.837Z,100108.00
2019-01-22T16:21:35.323Z,100102.00
2019-01-22T16:24:04.822Z,100093.00
2019-01-22T16:26:34.349Z,100100.00
2019-01-22T16:29:03.799Z,100100.00
2019-01-22T16:31:33.281Z,100093.00
2019-01-22T16:34:02.771Z,100102.00
2019-01-22T16:36:32.313Z,100097.00
2019-01-22T16:39:01.761Z,100093.00
2019-01-22T16:41:31.218Z,100084.00
2019-01-22T16:44:00.710Z,100090.00
2019-01-22T16:46:30.194Z,100089.00
2019-01-22T16:48:59.646Z,100092.00
2019-01-22T16:51:29.132Z,100091.00
2019-01-22T16:53:58.625Z,100084.00
2019-01-22T16:56:28.087Z,100080.00
2019-01-22T16:58:57.577Z,100073.00
2019-01-22T17:01:27.026Z,100068.00
2019-01-22T17:03:56.690Z,100069.00
2019-01-22T17:06:26.142Z,100075.00
2019-01-22T17:08:55.642Z,100073.00
2019-01-22T17:11:25.101Z,100058.00
2019-01-22T17:13:54.547Z,100065.00
2019-01-22T17:16:24.135Z,100061.00
2019-01-22T17:18:53.591Z,100054.00
2019-01-22T17:21:23.092Z,100060.00
2019-01-22T17:23:52.548Z,100062.00
2019-01-22T17:26:22.028Z,100060.00
2019-01-22T17:28:51.504Z,100049.00
2019-01-22T17:31:22.603Z,100056.00
2019-01-22T17:33:52.093Z,100048.00
2019-01-22T17:36:21.550Z,100047.00
2019-01-22T17:38:51.058Z,100047.00
2019-01-22T17:41:20.525Z,100040.00
2019-01-22T17:43:49.981Z,100038.00
2019-01-22T17:46:19.471Z,100038.00
2019-01-22T17:48:48.958Z,100034.00
2019-01-22T17:51:18.444Z,100042.00
2019-01-22T17:53:47.907Z,100036.00
2019-01-22T17:56:17.408Z,100035.00
2019-01-22T17:58:46.911Z,100034.00
2019-01-22T18:01:16.373Z,100044.00
2019-01-22T18:03:45.826Z,100040.00
2019-01-22T18:06:15.342Z,100034.00
2019-01-22T18:08:44.799Z,100029.00
2019-01-22T18:11:14.285Z,100025.00
2019-01-22T18:13:43.824Z,100023.00
2019-01-22T18:16:13.289Z,100017.00
2019-01-22T18:18:46.246Z,100014.00
2019-01-22T18:21:13.959Z,100011.00
2019-01-22T18:23:43.431Z,100009.00
2019-01-22T18:26:12.911Z,100011.00
2019-01-22T18:28:42.401Z,100000.00
2019-01-22T18:31:11.861Z,100002.00
2019-01-22T18:33:41.340Z,99999.00
2019-01-22T18:38:48.464Z,100005.00
2019-01-22T18:41:17.952Z,100003.00
2019-01-22T18:43:47.416Z,99998.00
2019-01-22T18:46:16.873Z,99993.00
2019-01-22T18:48:46.366Z,100002.00
2019-01-22T18:51:16.022Z,99994.00
2019-01-22T18:53:45.481Z,99998.00
2019-01-22T18:56:14.973Z,99997.00
2019-01-22T18:58:44.434Z,99994.00
2019-01-22T19:01:13.894Z,100002.00
2019-01-22T19:03:43.460Z,99995.00
2019-01-22T19:06:12.916Z,99990.00
2019-01-22T19:08:42.423Z,99987.00
2019-01-22T19:11:11.914Z,99984.00
2019-01-22T19:13:41.375Z,99973.00
2019-01-22T19:16:10.866Z,99973.00
2019-01-22T19:18:40.326Z,99971.00
2019-01-22T19:21:09.783Z,99974.00
2019-01-22T19:23:39.278Z,99966.00
2019-01-22T19:26:08.740Z,99961.00
2019-01-22T19:28:38.184Z,99966.00
2019-01-22T19:31:07.704Z,99963.00
2019-01-22T19:33:37.200Z,99965.00
2019-01-22T19:36:06.670Z,99958.00
2019-01-22T19:38:36.165Z,99955.00
2019-01-22T19:41:06.727Z,99954.00
2019-01-22T19:43:36.217Z,99948.00
2019-01-22T19:46:05.774Z,99957.00
2019-01-22T19:48:35.256Z,99937.00
2019-01-22T19:51:04.861Z,99938.00
2019-01-22T19:53:34.322Z,99942.00
2019-01-22T19:56:03.832Z,99937.00
2019-01-22T19:58:35.328Z,99938.00
2019-01-22T20:01:04.986Z,99938.00
2019-01-22T20:03:34.436Z,99933.00
2019-01-22T20:06:04.034Z,99946.00
2019-01-22T20:08:33.496Z,99938.00
2019-01-22T20:11:02.948Z,99936.00
2019-01-22T20:13:32.443Z,99943.00
2019-01-22T20:16:01.897Z,99931.00
2019-01-22T20:18:31.349Z,99937.00
2019-01-22T20:21:00.842Z,99934.00
2019-01-22T20:23:30.298Z,99935.00
2019-01-22T20:25:59.845Z,99927.00
2019-01-22T20:28:29.343Z,99932.00
2019-01-22T20:30:58.798Z,99931.00
2019-01-22T20:33:28.258Z,99938.00
2019-01-22T20:35:57.776Z,99941.00
2019-01-22T20:38:27.220Z,99941.00
2019-01-22T20:40:58.221Z,99957.00
2019-01-22T20:43:27.722Z,99946.00
2019-01-22T20:45:57.180Z,99922.00
2019-01-22T20:48:26.650Z,99927.00
2019-01-22T20:50:56.151Z,99919.00
2019-01-22T20:53:25.629Z,99920.00
2019-01-22T20:55:55.103Z,99915.00
2019-01-22T20:58:24.631Z,99909.00
2019-01-22T21:00:54.087Z,99908.00
2019-01-22T21:03:23.537Z,99906.00
2019-01-22T21:05:53.342Z,99900.00
2019-01-22T21:08:22.803Z,99900.00
2019-01-22T21:10:53.806Z,99898.00
2019-01-22T21:13:23.321Z,99893.00
2019-01-22T21:15:52.781Z,99899.00
2019-01-22T21:18:22.245Z,99924.00
2019-01-22T21:20:51.751Z,99905.00
2019-01-22T21:23:21.209Z,99910.00
2019-01-22T21:25:50.742Z,99911.00
2019-01-22T21:28:20.615Z,99905.00
2019-01-22T21:30:50.075Z,99899.00
2019-01-22T21:33:19.541Z,99904.00
2019-01-22T21:35:49.047Z,99919.00
2019-01-22T21:38:18.507Z,99913.00
2019-01-22T21:40:47.971Z,99918.00
2019-01-22T21:43:17.479Z,99887.00
2019-01-22T21:45:46.938Z,99883.00
2019-01-22T21:48:16.397Z,99882.00
2019-01-22T21:50:47.417Z,99874.00
2019-01-22T21:53:16.877Z,99874.00
2019-01-22T21:55:46.345Z,99878.00
2019-01-22T21:58:15.814Z,99870.00
2019-01-22T22:00:45.266Z,99870.00
2019-01-22T22:03:14.735Z,99868.00
2019-01-22T22:05:44.191Z,99862.00
2019-01-22T22:08:13.758Z,99853.00
2019-01-22T22:10:43.218Z,99847.00
2019-01-22T22:13:12.738Z,99858.00
2019-01-22T22:15:42.196Z,99856.00
2019-01-22T22:18:11.651Z,99840.00
2019-01-22T22:20:42.625Z,99841.00
2019-01-22T22:23:12.229Z,99838.00
2019-01-22T22:25:41.684Z,99834.00
2019-01-22T22:28:15.167Z,99830.00
2019-01-22T22:30:42.363Z,99830.00
2019-01-22T22:33:11.820Z,99833.00
2019-01-22T22:35:41.306Z,99833.00
2019-01-22T22:38:10.771Z,99824.00
2019-01-22T22:40:40.268Z,99823.00
2019-01-22T22:43:09.724Z,99826.00
2019-01-22T22:45:39.209Z,99819.00
2019-01-22T22:48:08.707Z,99821.00
2019-01-22T22:50:38.188Z,99811.00
2019-01-22T22:53:07.639Z,99811.00
2019-01-22T22:55:37.131Z,99809.00
2019-01-22T22:58:06.588Z,99809.00
2019-01-22T23:00:47.067Z,99809.00
2019-01-22T23:03:17.227Z,99806.00
2019-01-22T23:05:47.033Z,99802.00
2019-01-22T23:08:16.499Z,99804.00
2019-01-22T23:10:46.029Z,99801.00
2019-01-22T23:13:15.519Z,99793.00
2019-01-22T23:15:45.059Z,99776.00
2019-01-22T23:18:14.618Z,99783.00
2019-01-22T23:20:44.144Z,99781.00
2019-01-22T23:23:13.611Z,99776.00
2019-01-22T23:25:43.058Z,99775.00
2019-01-22T23:28:12.626Z,99767.00
2019-01-22T23:30:42.158Z,99762.00
2019-01-22T23:33:11.654Z,99761.00
2019-01-22T23:35:41.182Z,99763.00
2019-01-22T23:38:10.640Z,99765.00
2019-01-22T23:40:40.127Z,99754.00
2019-01-22T23:43:09.592Z,99750.00
2019-01-22T23:45:39.079Z,99747.00
2019-01-22T23:48:08.541Z,99743.00
2019-01-22T23:50:38.038Z,99741.00
2019-01-22T23:53:07.528Z,99735.00
2019-01-22T23:55:36.984Z,99735.00
2019-01-22T23:58:06.458Z,99728.00
